Airfield :
LOGIN :

Register | Disclaimer

   EN    FR    IT 

 










Legend :    VFR   Marginal VFR   IFR   Intensive IFR   Very Intensive IFR
Visi :
Ceiling :
>= 8 km
>= 3000ft
5 to 8 km
1000 to 3000 ft
1500m to 5 km
500 to 1000 ft
800 to 1500m
200 to 500 ft
< 800m
< 200 ft
Symbols :   Thunderstorms  Fog  Heavy snow  Heavy precipitations  Wind > 20 kt
SIGMETs :     Misc.  Thunderstorms  Icing  Turbulence  Mountain Waves  Volcanic Ashes






- Airport Elevation : 755 ft
- IATA code : RWN


UKLR - Rivne

CURRENT METAR :
  • 300700Z 33006MPS 9999 SCT014CB SCT014 M01/M02 Q1013 NOSIG

EXPIRED METARs :
  • 300600Z 32006MPS 9999 SCT013CB SCT013 M00/M01 Q1012 NOSIG
  • 300500Z 31005MPS 9999 -SHSNRA SCT013CB SCT013 00/M00 Q1012 NOSIG

TAF TAF UKLR
Valid from the 30 at 06:00 until the 30 at 15:00 UTC


300512Z 3006/3015 33007G12MPS 9999 BKN008 BKN013CB TX01/3009Z TNM02/3015Z
TEMPO 3006/3012 01009G14MPS 1000 -SHSN BR BKN003 BKN010CB
TEMPO 3012/3015 2100 -SHSN BKN007 BKN013CB



MET'MAP, your aeronautical weather chart ! - Copyright ORBIFLY December 2007 - Disclaimer

ORBIFLY MET'MAP TEAM :

Programming & Development : Alexandra Zaïnal
Concept & original design : Baudouin d'Aumeries
Assistance for programming : Marc-Olivier Méhu
Technical & hardware support : Manuel Goepfert

Contact : metmap@orbifly.com




SOURCES & CREDITS :

   NOAA